sensor_id;sensor_type;location;lat;lon;timestamp;P1;durP1;ratioP1;P2;durP2;ratioP2
46845;SDS011;33947;46.804;134.252;2022-11-24T00:01:50;49.53;;;20.07;;
46845;SDS011;33947;46.804;134.252;2022-11-24T00:04:55;40.20;;;16.45;;
46845;SDS011;33947;46.804;134.252;2022-11-24T00:07:59;31.33;;;12.70;;
46845;SDS011;33947;46.804;134.252;2022-11-24T00:11:04;39.47;;;14.15;;
46845;SDS011;33947;46.804;134.252;2022-11-24T00:14:10;26.05;;;11.73;;
46845;SDS011;33947;46.804;134.252;2022-11-24T00:17:15;38.50;;;13.50;;
46845;SDS011;33947;46.804;134.252;2022-11-24T00:20:19;34.70;;;12.98;;
46845;SDS011;33947;46.804;134.252;2022-11-24T00:23:24;35.47;;;15.88;;
46845;SDS011;33947;46.804;134.252;2022-11-24T00:26:30;27.90;;;12.73;;
46845;SDS011;33947;46.804;134.252;2022-11-24T00:29:37;32.55;;;13.73;;
46845;SDS011;33947;46.804;134.252;2022-11-24T00:32:41;38.55;;;18.38;;
46845;SDS011;33947;46.804;134.252;2022-11-24T00:35:52;138.88;;;42.58;;
46845;SDS011;33947;46.804;134.252;2022-11-24T00:39:01;49.10;;;20.35;;
46845;SDS011;33947;46.804;134.252;2022-11-24T00:42:10;42.13;;;17.90;;
46845;SDS011;33947;46.804;134.252;2022-11-24T00:45:14;47.50;;;22.70;;
46845;SDS011;33947;46.804;134.252;2022-11-24T00:48:19;64.30;;;22.70;;
46845;SDS011;33947;46.804;134.252;2022-11-24T00:54:30;47.33;;;18.00;;
46845;SDS011;33947;46.804;134.252;2022-11-24T00:57:35;30.05;;;13.77;;
46845;SDS011;33947;46.804;134.252;2022-11-24T01:00:39;35.92;;;14.10;;
46845;SDS011;33947;46.804;134.252;2022-11-24T01:03:44;37.90;;;15.38;;
46845;SDS011;33947;46.804;134.252;2022-11-24T01:06:51;31.88;;;15.07;;
46845;SDS011;33947;46.804;134.252;2022-11-24T01:09:56;42.25;;;15.25;;
46845;SDS011;33947;46.804;134.252;2022-11-24T01:13:00;24.00;;;11.40;;
46845;SDS011;33947;46.804;134.252;2022-11-24T01:16:05;23.63;;;10.85;;
46845;SDS011;33947;46.804;134.252;2022-11-24T01:19:10;112.43;;;34.75;;
46845;SDS011;33947;46.804;134.252;2022-11-24T01:22:14;38.45;;;12.35;;
46845;SDS011;33947;46.804;134.252;2022-11-24T01:25:19;26.23;;;14.60;;
46845;SDS011;33947;46.804;134.252;2022-11-24T01:28:23;30.67;;;12.40;;
46845;SDS011;33947;46.804;134.252;2022-11-24T01:31:28;32.92;;;14.85;;
46845;SDS011;33947;46.804;134.252;2022-11-24T01:34:32;51.55;;;27.23;;
46845;SDS011;33947;46.804;134.252;2022-11-24T01:37:37;44.80;;;20.07;;
46845;SDS011;33947;46.804;134.252;2022-11-24T01:40:42;33.17;;;13.80;;
46845;SDS011;33947;46.804;134.252;2022-11-24T01:43:46;30.30;;;13.25;;
46845;SDS011;33947;46.804;134.252;2022-11-24T01:46:57;42.38;;;14.23;;
46845;SDS011;33947;46.804;134.252;2022-11-24T01:50:12;21.42;;;11.20;;
46845;SDS011;33947;46.804;134.252;2022-11-24T01:53:19;21.58;;;9.10;;
46845;SDS011;33947;46.804;134.252;2022-11-24T01:56:26;13.20;;;7.50;;
46845;SDS011;33947;46.804;134.252;2022-11-24T01:59:32;41.03;;;17.40;;
46845;SDS011;33947;46.804;134.252;2022-11-24T02:02:37;12.38;;;6.55;;
46845;SDS011;33947;46.804;134.252;2022-11-24T02:05:49;145.90;;;35.43;;
46845;SDS011;33947;46.804;134.252;2022-11-24T02:09:21;19.98;;;8.38;;
46845;SDS011;33947;46.804;134.252;2022-11-24T02:12:29;54.65;;;19.95;;
46845;SDS011;33947;46.804;134.252;2022-11-24T02:15:54;26.98;;;9.00;;
46845;SDS011;33947;46.804;134.252;2022-11-24T02:18:59;13.02;;;6.43;;
46845;SDS011;33947;46.804;134.252;2022-11-24T02:22:07;21.10;;;6.78;;
46845;SDS011;33947;46.804;134.252;2022-11-24T02:29:00;12.43;;;7.20;;
46845;SDS011;33947;46.804;134.252;2022-11-24T02:32:05;12.17;;;6.33;;
46845;SDS011;33947;46.804;134.252;2022-11-24T02:35:12;14.38;;;7.90;;
46845;SDS011;33947;46.804;134.252;2022-11-24T02:38:17;13.23;;;7.07;;
46845;SDS011;33947;46.804;134.252;2022-11-24T02:41:21;32.92;;;7.07;;
46845;SDS011;33947;46.804;134.252;2022-11-24T02:44:29;17.40;;;6.70;;
46845;SDS011;33947;46.804;134.252;2022-11-24T02:47:40;9.82;;;5.90;;
46845;SDS011;33947;46.804;134.252;2022-11-24T02:50:44;32.50;;;10.93;;
46845;SDS011;33947;46.804;134.252;2022-11-24T02:53:49;102.18;;;25.17;;
46845;SDS011;33947;46.804;134.252;2022-11-24T02:56:53;14.65;;;6.25;;
46845;SDS011;33947;46.804;134.252;2022-11-24T02:59:58;29.13;;;10.30;;
46845;SDS011;33947;46.804;134.252;2022-11-24T03:03:05;19.20;;;7.35;;
46845;SDS011;33947;46.804;134.252;2022-11-24T03:06:10;11.07;;;5.63;;
46845;SDS011;33947;46.804;134.252;2022-11-24T03:09:14;9.52;;;5.72;;
46845;SDS011;33947;46.804;134.252;2022-11-24T03:12:19;13.55;;;6.95;;
46845;SDS011;33947;46.804;134.252;2022-11-24T03:15:23;13.00;;;7.25;;
46845;SDS011;33947;46.804;134.252;2022-11-24T03:18:28;53.45;;;14.10;;
46845;SDS011;33947;46.804;134.252;2022-11-24T03:21:34;14.38;;;6.40;;
46845;SDS011;33947;46.804;134.252;2022-11-24T03:24:39;103.03;;;22.75;;
46845;SDS011;33947;46.804;134.252;2022-11-24T03:27:43;12.60;;;7.20;;
46845;SDS011;33947;46.804;134.252;2022-11-24T03:30:49;15.45;;;7.07;;
46845;SDS011;33947;46.804;134.252;2022-11-24T03:33:53;15.55;;;6.65;;
46845;SDS011;33947;46.804;134.252;2022-11-24T03:36:57;36.70;;;10.57;;
46845;SDS011;33947;46.804;134.252;2022-11-24T03:40:02;19.55;;;7.05;;
46845;SDS011;33947;46.804;134.252;2022-11-24T03:43:06;268.10;;;55.15;;
46845;SDS011;33947;46.804;134.252;2022-11-24T03:46:11;16.92;;;7.60;;
46845;SDS011;33947;46.804;134.252;2022-11-24T03:49:16;48.30;;;14.40;;
46845;SDS011;33947;46.804;134.252;2022-11-24T03:52:20;13.25;;;6.53;;
46845;SDS011;33947;46.804;134.252;2022-11-24T03:55:25;11.73;;;6.80;;
46845;SDS011;33947;46.804;134.252;2022-11-24T03:58:29;106.28;;;27.75;;
46845;SDS011;33947;46.804;134.252;2022-11-24T04:01:34;11.55;;;6.55;;
46845;SDS011;33947;46.804;134.252;2022-11-24T04:04:39;16.25;;;6.85;;
46845;SDS011;33947;46.804;134.252;2022-11-24T04:07:53;11.57;;;6.10;;
46845;SDS011;33947;46.804;134.252;2022-11-24T04:11:05;44.80;;;14.38;;
46845;SDS011;33947;46.804;134.252;2022-11-24T04:14:10;17.92;;;5.95;;
46845;SDS011;33947;46.804;134.252;2022-11-24T04:17:15;26.13;;;9.45;;
46845;SDS011;33947;46.804;134.252;2022-11-24T04:20:19;16.17;;;8.13;;
46845;SDS011;33947;46.804;134.252;2022-11-24T04:23:24;26.05;;;8.63;;
46845;SDS011;33947;46.804;134.252;2022-11-24T04:26:30;10.32;;;6.28;;
46845;SDS011;33947;46.804;134.252;2022-11-24T04:29:35;9.73;;;5.97;;
46845;SDS011;33947;46.804;134.252;2022-11-24T04:32:39;56.80;;;16.13;;
46845;SDS011;33947;46.804;134.252;2022-11-24T04:35:44;21.40;;;8.82;;
46845;SDS011;33947;46.804;134.252;2022-11-24T04:38:48;14.23;;;7.25;;
46845;SDS011;33947;46.804;134.252;2022-11-24T04:42:18;15.15;;;6.50;;
46845;SDS011;33947;46.804;134.252;2022-11-24T04:45:22;30.00;;;7.40;;
46845;SDS011;33947;46.804;134.252;2022-11-24T04:48:28;38.72;;;10.05;;
46845;SDS011;33947;46.804;134.252;2022-11-24T04:51:32;41.63;;;19.80;;
46845;SDS011;33947;46.804;134.252;2022-11-24T04:54:36;15.52;;;6.53;;
46845;SDS011;33947;46.804;134.252;2022-11-24T04:57:40;8.77;;;5.60;;
46845;SDS011;33947;46.804;134.252;2022-11-24T05:00:45;12.82;;;6.90;;
46845;SDS011;33947;46.804;134.252;2022-11-24T05:03:53;11.65;;;6.75;;
46845;SDS011;33947;46.804;134.252;2022-11-24T05:06:58;14.38;;;6.93;;
46845;SDS011;33947;46.804;134.252;2022-11-24T05:10:03;28.58;;;9.45;;
46845;SDS011;33947;46.804;134.252;2022-11-24T05:13:26;12.13;;;6.45;;
46845;SDS011;33947;46.804;134.252;2022-11-24T05:16:30;15.02;;;6.53;;
46845;SDS011;33947;46.804;134.252;2022-11-24T05:19:35;9.98;;;5.90;;
46845;SDS011;33947;46.804;134.252;2022-11-24T05:22:39;14.75;;;7.68;;
46845;SDS011;33947;46.804;134.252;2022-11-24T05:25:43;14.38;;;6.60;;
46845;SDS011;33947;46.804;134.252;2022-11-24T05:28:49;9.32;;;6.10;;
46845;SDS011;33947;46.804;134.252;2022-11-24T05:31:53;17.88;;;7.50;;
46845;SDS011;33947;46.804;134.252;2022-11-24T05:34:58;10.82;;;6.45;;
46845;SDS011;33947;46.804;134.252;2022-11-24T05:38:04;13.13;;;6.53;;
46845;SDS011;33947;46.804;134.252;2022-11-24T05:41:08;12.30;;;6.80;;
46845;SDS011;33947;46.804;134.252;2022-11-24T05:44:13;8.68;;;5.43;;
46845;SDS011;33947;46.804;134.252;2022-11-24T05:47:17;13.13;;;6.25;;
46845;SDS011;33947;46.804;134.252;2022-11-24T05:50:22;24.55;;;11.27;;
46845;SDS011;33947;46.804;134.252;2022-11-24T05:53:26;16.48;;;7.22;;
46845;SDS011;33947;46.804;134.252;2022-11-24T05:56:31;11.80;;;6.55;;
46845;SDS011;33947;46.804;134.252;2022-11-24T05:59:35;41.05;;;17.30;;
46845;SDS011;33947;46.804;134.252;2022-11-24T06:02:39;82.75;;;21.98;;
46845;SDS011;33947;46.804;134.252;2022-11-24T06:05:45;31.90;;;14.30;;
46845;SDS011;33947;46.804;134.252;2022-11-24T06:08:49;15.10;;;10.32;;
46845;SDS011;33947;46.804;134.252;2022-11-24T06:11:54;24.85;;;7.38;;
46845;SDS011;33947;46.804;134.252;2022-11-24T06:14:59;73.10;;;24.58;;
46845;SDS011;33947;46.804;134.252;2022-11-24T06:18:04;16.60;;;6.65;;
46845;SDS011;33947;46.804;134.252;2022-11-24T06:21:09;15.17;;;7.00;;
46845;SDS011;33947;46.804;134.252;2022-11-24T06:24:13;14.60;;;7.25;;
46845;SDS011;33947;46.804;134.252;2022-11-24T06:27:18;12.48;;;7.13;;
46845;SDS011;33947;46.804;134.252;2022-11-24T06:30:22;11.30;;;6.95;;
46845;SDS011;33947;46.804;134.252;2022-11-24T06:33:29;17.42;;;7.00;;
46845;SDS011;33947;46.804;134.252;2022-11-24T06:36:34;18.23;;;7.03;;
46845;SDS011;33947;46.804;134.252;2022-11-24T06:39:39;16.13;;;8.00;;
46845;SDS011;33947;46.804;134.252;2022-11-24T06:42:48;17.50;;;8.73;;
46845;SDS011;33947;46.804;134.252;2022-11-24T06:45:54;12.88;;;6.60;;
46845;SDS011;33947;46.804;134.252;2022-11-24T06:48:59;16.00;;;6.82;;
46845;SDS011;33947;46.804;134.252;2022-11-24T06:52:04;14.75;;;6.72;;
46845;SDS011;33947;46.804;134.252;2022-11-24T06:55:09;14.15;;;6.95;;
46845;SDS011;33947;46.804;134.252;2022-11-24T06:58:13;13.40;;;6.55;;
46845;SDS011;33947;46.804;134.252;2022-11-24T07:01:24;19.75;;;7.15;;
46845;SDS011;33947;46.804;134.252;2022-11-24T07:04:30;25.05;;;8.70;;
46845;SDS011;33947;46.804;134.252;2022-11-24T07:07:35;39.13;;;9.85;;
46845;SDS011;33947;46.804;134.252;2022-11-24T07:10:40;66.40;;;13.98;;
46845;SDS011;33947;46.804;134.252;2022-11-24T07:13:44;39.63;;;10.65;;
46845;SDS011;33947;46.804;134.252;2022-11-24T07:16:49;71.93;;;12.77;;
46845;SDS011;33947;46.804;134.252;2022-11-24T07:19:53;38.78;;;10.45;;
46845;SDS011;33947;46.804;134.252;2022-11-24T07:22:58;51.25;;;14.23;;
46845;SDS011;33947;46.804;134.252;2022-11-24T07:26:03;51.67;;;13.60;;
46845;SDS011;33947;46.804;134.252;2022-11-24T07:29:09;88.90;;;17.70;;
46845;SDS011;33947;46.804;134.252;2022-11-24T07:32:13;59.83;;;14.38;;
46845;SDS011;33947;46.804;134.252;2022-11-24T07:35:18;42.17;;;10.38;;
46845;SDS011;33947;46.804;134.252;2022-11-24T07:38:22;35.95;;;10.18;;
46845;SDS011;33947;46.804;134.252;2022-11-24T07:41:27;71.68;;;12.90;;
46845;SDS011;33947;46.804;134.252;2022-11-24T07:44:31;26.60;;;9.60;;
46845;SDS011;33947;46.804;134.252;2022-11-24T07:47:39;57.72;;;20.10;;
46845;SDS011;33947;46.804;134.252;2022-11-24T07:50:44;37.50;;;18.63;;
46845;SDS011;33947;46.804;134.252;2022-11-24T07:53:55;64.80;;;24.35;;
46845;SDS011;33947;46.804;134.252;2022-11-24T07:56:59;45.65;;;21.65;;
46845;SDS011;33947;46.804;134.252;2022-11-24T08:00:04;53.25;;;25.80;;
46845;SDS011;33947;46.804;134.252;2022-11-24T08:03:08;51.97;;;26.80;;
46845;SDS011;33947;46.804;134.252;2022-11-24T08:06:13;83.97;;;37.83;;
46845;SDS011;33947;46.804;134.252;2022-11-24T08:09:32;62.75;;;25.92;;
46845;SDS011;33947;46.804;134.252;2022-11-24T08:12:36;96.18;;;37.30;;
46845;SDS011;33947;46.804;134.252;2022-11-24T08:15:42;217.10;;;88.97;;
46845;SDS011;33947;46.804;134.252;2022-11-24T08:18:50;249.30;;;130.93;;
46845;SDS011;33947;46.804;134.252;2022-11-24T08:21:56;109.85;;;41.30;;
46845;SDS011;33947;46.804;134.252;2022-11-24T08:25:02;132.70;;;51.33;;
46845;SDS011;33947;46.804;134.252;2022-11-24T08:28:06;110.70;;;42.17;;
46845;SDS011;33947;46.804;134.252;2022-11-24T08:31:12;113.17;;;43.37;;
46845;SDS011;33947;46.804;134.252;2022-11-24T08:34:19;116.70;;;45.08;;
46845;SDS011;33947;46.804;134.252;2022-11-24T08:37:24;153.10;;;54.40;;
46845;SDS011;33947;46.804;134.252;2022-11-24T08:40:30;200.57;;;70.07;;
46845;SDS011;33947;46.804;134.252;2022-11-24T08:43:35;150.27;;;61.45;;
46845;SDS011;33947;46.804;134.252;2022-11-24T08:46:40;183.55;;;56.42;;
46845;SDS011;33947;46.804;134.252;2022-11-24T08:49:45;159.38;;;54.63;;
46845;SDS011;33947;46.804;134.252;2022-11-24T08:52:52;145.48;;;53.80;;
46845;SDS011;33947;46.804;134.252;2022-11-24T08:56:00;151.90;;;52.90;;
46845;SDS011;33947;46.804;134.252;2022-11-24T08:59:05;166.55;;;64.05;;
46845;SDS011;33947;46.804;134.252;2022-11-24T09:02:11;148.02;;;58.20;;
46845;SDS011;33947;46.804;134.252;2022-11-24T09:08:40;170.18;;;66.97;;
46845;SDS011;33947;46.804;134.252;2022-11-24T09:11:44;152.23;;;60.20;;
46845;SDS011;33947;46.804;134.252;2022-11-24T09:14:49;148.13;;;57.80;;
46845;SDS011;33947;46.804;134.252;2022-11-24T09:17:56;138.52;;;50.88;;
46845;SDS011;33947;46.804;134.252;2022-11-24T09:21:19;122.50;;;45.88;;
46845;SDS011;33947;46.804;134.252;2022-11-24T09:24:24;120.60;;;44.88;;
46845;SDS011;33947;46.804;134.252;2022-11-24T09:27:28;118.07;;;47.90;;
46845;SDS011;33947;46.804;134.252;2022-11-24T09:30:33;168.63;;;57.75;;
46845;SDS011;33947;46.804;134.252;2022-11-24T09:33:40;139.88;;;53.88;;
46845;SDS011;33947;46.804;134.252;2022-11-24T09:39:50;179.93;;;61.92;;
46845;SDS011;33947;46.804;134.252;2022-11-24T09:42:59;166.10;;;62.47;;
46845;SDS011;33947;46.804;134.252;2022-11-24T09:46:22;174.85;;;58.90;;
46845;SDS011;33947;46.804;134.252;2022-11-24T09:55:57;165.63;;;60.90;;
46845;SDS011;33947;46.804;134.252;2022-11-24T09:59:09;158.32;;;56.10;;
46845;SDS011;33947;46.804;134.252;2022-11-24T10:02:20;164.05;;;57.22;;
46845;SDS011;33947;46.804;134.252;2022-11-24T10:05:24;155.70;;;58.50;;
46845;SDS011;33947;46.804;134.252;2022-11-24T10:25:22;166.98;;;54.92;;
46845;SDS011;33947;46.804;134.252;2022-11-24T10:28:41;172.55;;;57.80;;
46845;SDS011;33947;46.804;134.252;2022-11-24T10:31:54;170.57;;;53.55;;
46845;SDS011;33947;46.804;134.252;2022-11-24T10:34:59;167.27;;;54.65;;
46845;SDS011;33947;46.804;134.252;2022-11-24T10:42:06;185.45;;;52.03;;
46845;SDS011;33947;46.804;134.252;2022-11-24T10:45:30;183.68;;;55.17;;
46845;SDS011;33947;46.804;134.252;2022-11-24T10:48:45;159.10;;;52.38;;
46845;SDS011;33947;46.804;134.252;2022-11-24T10:52:12;163.75;;;52.15;;
46845;SDS011;33947;46.804;134.252;2022-11-24T10:55:24;161.35;;;53.85;;
46845;SDS011;33947;46.804;134.252;2022-11-24T10:58:36;195.20;;;61.57;;
46845;SDS011;33947;46.804;134.252;2022-11-24T11:01:41;163.30;;;52.85;;
46845;SDS011;33947;46.804;134.252;2022-11-24T11:04:46;207.18;;;67.82;;
46845;SDS011;33947;46.804;134.252;2022-11-24T11:07:53;171.25;;;55.88;;
46845;SDS011;33947;46.804;134.252;2022-11-24T11:11:28;154.32;;;52.55;;
46845;SDS011;33947;46.804;134.252;2022-11-24T11:14:35;158.95;;;51.53;;
46845;SDS011;33947;46.804;134.252;2022-11-24T11:17:39;167.10;;;54.50;;
46845;SDS011;33947;46.804;134.252;2022-11-24T11:20:50;173.80;;;58.08;;
46845;SDS011;33947;46.804;134.252;2022-11-24T11:23:57;158.35;;;55.05;;
46845;SDS011;33947;46.804;134.252;2022-11-24T11:27:04;184.95;;;61.00;;
46845;SDS011;33947;46.804;134.252;2022-11-24T11:30:25;186.43;;;63.30;;
46845;SDS011;33947;46.804;134.252;2022-11-24T11:33:54;198.43;;;68.05;;
46845;SDS011;33947;46.804;134.252;2022-11-24T11:37:07;217.43;;;69.00;;
46845;SDS011;33947;46.804;134.252;2022-11-24T11:40:16;231.15;;;78.57;;
46845;SDS011;33947;46.804;134.252;2022-11-24T11:43:26;222.80;;;76.00;;
46845;SDS011;33947;46.804;134.252;2022-11-24T11:46:34;189.90;;;68.85;;
46845;SDS011;33947;46.804;134.252;2022-11-24T11:49:40;188.77;;;66.00;;
46845;SDS011;33947;46.804;134.252;2022-11-24T11:56:23;180.70;;;65.15;;
46845;SDS011;33947;46.804;134.252;2022-11-24T12:09:53;229.63;;;75.07;;
46845;SDS011;33947;46.804;134.252;2022-11-24T12:13:18;227.98;;;71.75;;
46845;SDS011;33947;46.804;134.252;2022-11-24T12:20:22;197.55;;;70.13;;
46845;SDS011;33947;46.804;134.252;2022-11-24T12:24:00;200.02;;;69.75;;
46845;SDS011;33947;46.804;134.252;2022-11-24T12:31:05;201.60;;;63.90;;
46845;SDS011;33947;46.804;134.252;2022-11-24T12:34:19;185.95;;;64.25;;
46845;SDS011;33947;46.804;134.252;2022-11-24T12:44:57;187.25;;;62.05;;
46845;SDS011;33947;46.804;134.252;2022-11-24T12:52:02;167.88;;;54.17;;
46845;SDS011;33947;46.804;134.252;2022-11-24T12:55:16;174.00;;;54.83;;
46845;SDS011;33947;46.804;134.252;2022-11-24T13:08:29;190.20;;;62.72;;
46845;SDS011;33947;46.804;134.252;2022-11-24T13:11:38;234.48;;;68.20;;
46845;SDS011;33947;46.804;134.252;2022-11-24T13:14:44;237.77;;;69.90;;
46845;SDS011;33947;46.804;134.252;2022-11-24T13:17:51;221.63;;;65.88;;
46845;SDS011;33947;46.804;134.252;2022-11-24T13:24:41;200.38;;;63.58;;
46845;SDS011;33947;46.804;134.252;2022-11-24T13:27:48;208.77;;;62.45;;
46845;SDS011;33947;46.804;134.252;2022-11-24T13:31:06;207.38;;;62.65;;
46845;SDS011;33947;46.804;134.252;2022-11-24T13:40:47;315.83;;;88.47;;
46845;SDS011;33947;46.804;134.252;2022-11-24T13:54:16;151.30;;;43.60;;
46845;SDS011;33947;46.804;134.252;2022-11-24T14:07:32;51.78;;;18.95;;
46845;SDS011;33947;46.804;134.252;2022-11-24T14:10:37;141.10;;;37.77;;
46845;SDS011;33947;46.804;134.252;2022-11-24T14:13:45;66.68;;;22.00;;
46845;SDS011;33947;46.804;134.252;2022-11-24T14:17:35;55.17;;;19.63;;
46845;SDS011;33947;46.804;134.252;2022-11-24T14:20:24;54.05;;;15.93;;
46845;SDS011;33947;46.804;134.252;2022-11-24T14:23:30;27.55;;;11.50;;
46845;SDS011;33947;46.804;134.252;2022-11-24T14:26:36;21.00;;;8.85;;
46845;SDS011;33947;46.804;134.252;2022-11-24T14:29:58;22.67;;;9.38;;
46845;SDS011;33947;46.804;134.252;2022-11-24T14:33:09;19.92;;;9.77;;
46845;SDS011;33947;46.804;134.252;2022-11-24T14:36:21;31.17;;;8.18;;
46845;SDS011;33947;46.804;134.252;2022-11-24T14:39:25;25.58;;;7.78;;
46845;SDS011;33947;46.804;134.252;2022-11-24T14:42:30;16.88;;;7.07;;
46845;SDS011;33947;46.804;134.252;2022-11-24T14:45:35;13.05;;;6.22;;
46845;SDS011;33947;46.804;134.252;2022-11-24T14:48:45;13.50;;;6.97;;
46845;SDS011;33947;46.804;134.252;2022-11-24T14:51:55;16.35;;;6.85;;
46845;SDS011;33947;46.804;134.252;2022-11-24T14:55:03;13.48;;;6.90;;
46845;SDS011;33947;46.804;134.252;2022-11-24T14:58:30;23.15;;;9.95;;
46845;SDS011;33947;46.804;134.252;2022-11-24T15:01:43;12.32;;;6.82;;
46845;SDS011;33947;46.804;134.252;2022-11-24T15:04:55;22.42;;;6.82;;
46845;SDS011;33947;46.804;134.252;2022-11-24T15:08:09;53.88;;;17.13;;
46845;SDS011;33947;46.804;134.252;2022-11-24T15:11:17;26.50;;;10.30;;
46845;SDS011;33947;46.804;134.252;2022-11-24T15:14:30;16.50;;;9.35;;
46845;SDS011;33947;46.804;134.252;2022-11-24T15:18:17;13.43;;;7.53;;
46845;SDS011;33947;46.804;134.252;2022-11-24T15:21:33;13.55;;;7.13;;
46845;SDS011;33947;46.804;134.252;2022-11-24T15:24:47;14.98;;;6.95;;
46845;SDS011;33947;46.804;134.252;2022-11-24T15:27:54;71.88;;;32.05;;
46845;SDS011;33947;46.804;134.252;2022-11-24T15:30:59;25.00;;;11.43;;
46845;SDS011;33947;46.804;134.252;2022-11-24T15:34:05;26.33;;;11.75;;
46845;SDS011;33947;46.804;134.252;2022-11-24T15:37:10;22.23;;;9.95;;
46845;SDS011;33947;46.804;134.252;2022-11-24T15:40:15;35.72;;;13.43;;
46845;SDS011;33947;46.804;134.252;2022-11-24T15:43:33;19.73;;;9.05;;
46845;SDS011;33947;46.804;134.252;2022-11-24T15:46:39;10.52;;;4.93;;
46845;SDS011;33947;46.804;134.252;2022-11-24T15:49:44;13.27;;;6.90;;
46845;SDS011;33947;46.804;134.252;2022-11-24T15:52:48;79.45;;;25.05;;
46845;SDS011;33947;46.804;134.252;2022-11-24T15:55:53;13.90;;;5.83;;
46845;SDS011;33947;46.804;134.252;2022-11-24T15:59:01;9.15;;;4.80;;
46845;SDS011;33947;46.804;134.252;2022-11-24T16:02:07;26.98;;;10.00;;
46845;SDS011;33947;46.804;134.252;2022-11-24T16:05:12;13.40;;;6.85;;
46845;SDS011;33947;46.804;134.252;2022-11-24T16:08:17;28.42;;;9.82;;
46845;SDS011;33947;46.804;134.252;2022-11-24T16:11:22;15.40;;;6.53;;
46845;SDS011;33947;46.804;134.252;2022-11-24T16:14:26;14.13;;;6.72;;
46845;SDS011;33947;46.804;134.252;2022-11-24T16:17:31;16.48;;;7.28;;
46845;SDS011;33947;46.804;134.252;2022-11-24T16:20:35;15.45;;;6.70;;
46845;SDS011;33947;46.804;134.252;2022-11-24T16:23:40;15.35;;;6.93;;
46845;SDS011;33947;46.804;134.252;2022-11-24T16:26:44;13.57;;;5.83;;
46845;SDS011;33947;46.804;134.252;2022-11-24T16:29:48;9.90;;;5.20;;
46845;SDS011;33947;46.804;134.252;2022-11-24T16:32:53;15.88;;;5.82;;
46845;SDS011;33947;46.804;134.252;2022-11-24T16:35:57;11.82;;;5.55;;
46845;SDS011;33947;46.804;134.252;2022-11-24T16:39:02;9.60;;;5.38;;
46845;SDS011;33947;46.804;134.252;2022-11-24T16:42:06;11.52;;;4.78;;
46845;SDS011;33947;46.804;134.252;2022-11-24T16:45:11;8.68;;;5.20;;
46845;SDS011;33947;46.804;134.252;2022-11-24T16:48:15;10.55;;;5.20;;
46845;SDS011;33947;46.804;134.252;2022-11-24T16:51:21;10.00;;;5.10;;
46845;SDS011;33947;46.804;134.252;2022-11-24T16:54:31;9.60;;;5.53;;
46845;SDS011;33947;46.804;134.252;2022-11-24T16:57:36;9.13;;;5.65;;
46845;SDS011;33947;46.804;134.252;2022-11-24T17:00:41;12.57;;;5.68;;
46845;SDS011;33947;46.804;134.252;2022-11-24T17:03:46;11.17;;;5.77;;
46845;SDS011;33947;46.804;134.252;2022-11-24T17:06:50;9.88;;;4.93;;
46845;SDS011;33947;46.804;134.252;2022-11-24T17:09:55;12.50;;;5.97;;
46845;SDS011;33947;46.804;134.252;2022-11-24T17:13:01;9.50;;;4.93;;
46845;SDS011;33947;46.804;134.252;2022-11-24T17:16:06;15.15;;;6.43;;
46845;SDS011;33947;46.804;134.252;2022-11-24T17:19:12;15.35;;;7.03;;
46845;SDS011;33947;46.804;134.252;2022-11-24T17:22:17;25.42;;;9.60;;
46845;SDS011;33947;46.804;134.252;2022-11-24T17:25:21;15.27;;;6.63;;
46845;SDS011;33947;46.804;134.252;2022-11-24T17:28:26;18.83;;;6.75;;
46845;SDS011;33947;46.804;134.252;2022-11-24T17:31:31;19.75;;;8.25;;
46845;SDS011;33947;46.804;134.252;2022-11-24T17:34:38;14.73;;;8.07;;
46845;SDS011;33947;46.804;134.252;2022-11-24T17:37:42;9.48;;;5.40;;
46845;SDS011;33947;46.804;134.252;2022-11-24T17:40:46;10.25;;;5.43;;
46845;SDS011;33947;46.804;134.252;2022-11-24T17:43:51;24.70;;;10.10;;
46845;SDS011;33947;46.804;134.252;2022-11-24T17:47:00;10.77;;;5.20;;
46845;SDS011;33947;46.804;134.252;2022-11-24T17:50:05;14.90;;;6.50;;
46845;SDS011;33947;46.804;134.252;2022-11-24T17:53:10;23.17;;;8.87;;
46845;SDS011;33947;46.804;134.252;2022-11-24T17:56:21;26.10;;;9.27;;
46845;SDS011;33947;46.804;134.252;2022-11-24T17:59:28;26.17;;;9.32;;
46845;SDS011;33947;46.804;134.252;2022-11-24T18:02:32;23.38;;;11.20;;
46845;SDS011;33947;46.804;134.252;2022-11-24T18:05:38;26.47;;;16.10;;
46845;SDS011;33947;46.804;134.252;2022-11-24T18:08:43;18.50;;;9.35;;
46845;SDS011;33947;46.804;134.252;2022-11-24T18:11:49;22.10;;;12.00;;
46845;SDS011;33947;46.804;134.252;2022-11-24T18:14:54;14.73;;;6.82;;
46845;SDS011;33947;46.804;134.252;2022-11-24T18:17:59;7.35;;;4.47;;
46845;SDS011;33947;46.804;134.252;2022-11-24T18:21:05;11.95;;;5.30;;
46845;SDS011;33947;46.804;134.252;2022-11-24T18:24:11;6.95;;;4.25;;
46845;SDS011;33947;46.804;134.252;2022-11-24T18:27:21;9.00;;;4.53;;
46845;SDS011;33947;46.804;134.252;2022-11-24T18:30:25;10.35;;;5.22;;
46845;SDS011;33947;46.804;134.252;2022-11-24T18:33:30;8.73;;;4.20;;
46845;SDS011;33947;46.804;134.252;2022-11-24T18:36:34;9.67;;;5.23;;
46845;SDS011;33947;46.804;134.252;2022-11-24T18:39:39;7.70;;;5.00;;
46845;SDS011;33947;46.804;134.252;2022-11-24T18:42:44;9.27;;;5.10;;
46845;SDS011;33947;46.804;134.252;2022-11-24T18:45:49;7.72;;;4.88;;
46845;SDS011;33947;46.804;134.252;2022-11-24T18:48:56;9.00;;;5.75;;
46845;SDS011;33947;46.804;134.252;2022-11-24T18:52:00;9.35;;;5.05;;
46845;SDS011;33947;46.804;134.252;2022-11-24T18:55:05;18.20;;;5.65;;
46845;SDS011;33947;46.804;134.252;2022-11-24T18:58:09;10.15;;;5.30;;
46845;SDS011;33947;46.804;134.252;2022-11-24T19:01:14;7.97;;;4.30;;
46845;SDS011;33947;46.804;134.252;2022-11-24T19:04:20;13.38;;;5.45;;
46845;SDS011;33947;46.804;134.252;2022-11-24T19:10:34;8.57;;;4.68;;
46845;SDS011;33947;46.804;134.252;2022-11-24T19:13:41;9.27;;;5.43;;
46845;SDS011;33947;46.804;134.252;2022-11-24T19:16:46;10.77;;;5.93;;
46845;SDS011;33947;46.804;134.252;2022-11-24T19:19:50;11.00;;;5.50;;
46845;SDS011;33947;46.804;134.252;2022-11-24T19:22:54;11.73;;;4.90;;
46845;SDS011;33947;46.804;134.252;2022-11-24T19:25:59;7.88;;;5.07;;
46845;SDS011;33947;46.804;134.252;2022-11-24T19:29:05;9.38;;;5.05;;
46845;SDS011;33947;46.804;134.252;2022-11-24T19:32:10;10.43;;;5.07;;
46845;SDS011;33947;46.804;134.252;2022-11-24T19:35:15;9.27;;;4.75;;
46845;SDS011;33947;46.804;134.252;2022-11-24T19:38:19;8.95;;;4.68;;
46845;SDS011;33947;46.804;134.252;2022-11-24T19:41:31;8.98;;;5.03;;
46845;SDS011;33947;46.804;134.252;2022-11-24T19:47:40;15.82;;;5.25;;
46845;SDS011;33947;46.804;134.252;2022-11-24T19:50:45;13.00;;;6.20;;